Time;durP1;ratioP1;P1;durP2;ratioP2;P2;SDS_P1;SDS_P2;PMS_P1;PMS_P2;Temp;Humidity;BMP_temperature;BMP_pressure;BME280_temperature;BME280_humidity;BME280_pressure;Samples;Min_cycle;Max_cycle;Signal;HPM_P1;HPM_P2
2022/07/06 00:01:36;;;;;;;10.25;4.10;;;17.90;1.00;;;;;;5070916;28;20868;-55
2022/07/06 00:04:02;;;;;;;8.70;4.20;;;17.80;1.00;;;;;;5067237;28;20391;-55
2022/07/06 00:06:28;;;;;;;8.50;4.50;;;17.80;1.00;;;;;;5070951;28;20487;-55
2022/07/06 00:08:54;;;;;;;9.48;4.60;;;17.80;1.00;;;;;;5067296;28;20447;-55
2022/07/06 00:11:20;;;;;;;9.60;4.60;;;17.80;1.00;;;;;;5068685;28;20543;-57
2022/07/06 00:13:45;;;;;;;8.50;4.30;;;17.70;1.00;;;;;;5067644;28;20383;-56
2022/07/06 00:16:11;;;;;;;8.10;4.28;;;17.80;1.00;;;;;;5069591;28;20392;-55
2022/07/06 00:18:37;;;;;;;13.03;7.87;;;17.70;1.00;;;;;;5067823;28;20440;-56
2022/07/06 00:21:03;;;;;;;8.48;4.47;;;17.80;1.00;;;;;;5068198;28;20832;-55
2022/07/06 00:23:28;;;;;;;8.80;4.40;;;17.80;1.00;;;;;;5068375;28;20388;-56
2022/07/06 00:25:54;;;;;;;9.73;4.30;;;17.80;1.00;;;;;;5066600;28;20408;-55
2022/07/06 00:28:20;;;;;;;8.20;4.40;;;17.70;1.00;;;;;;5068371;28;20396;-55
2022/07/06 00:30:46;;;;;;;8.98;4.78;;;17.70;1.00;;;;;;5067320;28;20422;-55
2022/07/06 00:33:11;;;;;;;9.20;4.50;;;17.60;1.00;;;;;;5070010;28;20399;-55
2022/07/06 00:35:37;;;;;;;10.00;4.70;;;17.50;1.00;;;;;;5067430;28;20717;-54
2022/07/06 00:38:03;;;;;;;7.45;3.90;;;17.40;1.00;;;;;;5067803;28;20387;-55
2022/07/06 00:40:29;;;;;;;8.90;4.50;;;17.50;1.00;;;;;;5068800;28;20501;-55
2022/07/06 00:42:56;;;;;;;9.38;4.10;;;17.50;1.00;;;;;;5068259;28;20383;-55
2022/07/06 00:45:21;;;;;;;7.80;4.45;;;17.60;1.00;;;;;;5069632;28;20396;-55
2022/07/06 00:47:47;;;;;;;8.00;4.03;;;17.30;1.00;;;;;;5072006;28;20718;-53
2022/07/06 00:50:20;;;;;;;8.38;4.43;;;17.30;1.00;;;;;;5068652;28;20532;-53
2022/07/06 00:52:59;;;;;;;8.20;4.43;;;17.30;1.00;;;;;;5071983;28;20396;-55
2022/07/06 00:55:39;;;;;;;8.37;4.30;;;17.20;1.00;;;;;;5069511;28;20399;-55
2022/07/06 00:58:06;;;;;;;7.43;3.83;;;17.20;1.00;;;;;;5070658;28;20808;-54
2022/07/06 01:00:32;;;;;;;8.38;4.15;;;17.20;1.00;;;;;;5071220;28;20525;-54
2022/07/06 01:02:58;;;;;;;9.88;4.55;;;17.10;1.00;;;;;;5072265;28;20407;-55
2022/07/06 01:05:24;;;;;;;8.00;3.88;;;17.10;1.00;;;;;;5070754;28;20456;-54
2022/07/06 01:07:52;;;;;;;8.13;4.40;;;17.10;1.00;;;;;;5070724;28;20775;-54
2022/07/06 01:10:19;;;;;;;8.55;4.00;;;17.00;1.00;;;;;;5071190;28;20411;-55
2022/07/06 01:12:47;;;;;;;7.30;4.10;;;17.10;1.00;;;;;;5070502;28;20445;-55
2022/07/06 01:15:18;;;;;;;8.85;4.00;;;17.10;1.00;;;;;;5069858;28;20376;-55
2022/07/06 01:17:44;;;;;;;7.35;4.00;;;17.00;1.00;;;;;;5072757;28;20395;-55
2022/07/06 01:20:10;;;;;;;10.60;4.50;;;17.00;1.00;;;;;;5069940;28;20446;-55
2022/07/06 01:22:35;;;;;;;11.33;4.40;;;16.90;1.00;;;;;;5070492;28;20904;-55
2022/07/06 01:25:01;;;;;;;8.27;4.07;;;17.00;1.00;;;;;;5069283;28;20473;-55
2022/07/06 01:27:27;;;;;;;9.18;4.05;;;16.80;1.00;;;;;;5071402;28;20433;-55
2022/07/06 01:29:52;;;;;;;7.30;3.80;;;16.90;1.00;;;;;;5068167;28;20422;-54
2022/07/06 01:32:18;;;;;;;7.20;3.80;;;16.70;1.00;;;;;;5070890;28;20442;-55
2022/07/06 01:34:44;;;;;;;9.70;3.78;;;16.70;1.00;;;;;;5070240;28;20841;-55
2022/07/06 01:37:09;;;;;;;7.88;3.85;;;16.70;1.00;;;;;;5069454;28;20407;-54
2022/07/06 01:39:35;;;;;;;8.80;4.03;;;16.60;1.00;;;;;;5070629;28;20414;-55
2022/07/06 01:42:00;;;;;;;8.83;4.13;;;16.50;1.00;;;;;;5071614;28;20436;-54
2022/07/06 01:44:26;;;;;;;8.80;3.88;;;16.50;1.00;;;;;;5070042;28;20384;-55
2022/07/06 01:46:52;;;;;;;7.43;3.65;;;16.50;1.00;;;;;;5072973;28;20687;-54
2022/07/06 01:49:17;;;;;;;9.17;4.50;;;16.30;1.00;;;;;;5069485;28;20375;-55
2022/07/06 01:51:43;;;;;;;8.87;3.90;;;16.50;1.00;;;;;;5073263;28;20756;-54
2022/07/06 01:54:08;;;;;;;7.72;3.80;;;16.50;1.00;;;;;;5069289;28;20399;-55
2022/07/06 01:56:34;;;;;;;7.90;4.40;;;16.40;1.00;;;;;;5071736;28;20514;-55
2022/07/06 01:59:00;;;;;;;8.13;4.00;;;16.40;1.00;;;;;;5069059;28;20480;-56
2022/07/06 02:01:25;;;;;;;7.63;3.93;;;16.30;1.00;;;;;;5070163;28;20392;-56
2022/07/06 02:03:51;;;;;;;8.95;3.90;;;16.20;1.00;;;;;;5069201;28;20453;-54
2022/07/06 02:06:16;;;;;;;10.35;4.30;;;16.10;1.00;;;;;;5069727;28;20391;-55
2022/07/06 02:08:43;;;;;;;8.20;3.90;;;16.30;1.00;;;;;;5069799;28;20383;-55
2022/07/06 02:11:09;;;;;;;7.97;4.13;;;16.20;1.00;;;;;;5069379;28;20461;-55
2022/07/06 02:13:36;;;;;;;9.52;4.13;;;16.20;1.00;;;;;;5069632;28;20383;-54
2022/07/06 02:16:01;;;;;;;8.63;4.15;;;16.10;1.00;;;;;;5069327;28;20391;-54
2022/07/06 02:18:27;;;;;;;10.30;4.30;;;16.50;1.00;;;;;;5069728;28;20398;-54
2022/07/06 02:20:53;;;;;;;8.07;4.10;;;16.10;1.00;;;;;;5068689;28;20479;-54
2022/07/06 02:23:18;;;;;;;8.43;4.50;;;16.00;34.70;;;;;;5069551;28;20426;-55
2022/07/06 02:25:44;;;;;;;8.10;4.00;;;16.10;39.30;;;;;;5069264;28;20515;-55
2022/07/06 02:28:10;;;;;;;8.65;4.05;;;16.10;39.80;;;;;;5068464;28;20388;-54
2022/07/06 02:30:35;;;;;;;7.63;4.00;;;16.10;33.80;;;;;;5070100;28;20907;-55
2022/07/06 02:33:01;;;;;;;8.20;4.67;;;16.10;31.00;;;;;;5068921;28;20395;-54
2022/07/06 02:35:27;;;;;;;8.07;4.25;;;16.10;22.20;;;;;;5069518;28;20636;-54
2022/07/06 02:37:52;;;;;;;8.60;4.33;;;16.10;25.60;;;;;;5068618;28;20410;-55
2022/07/06 02:40:18;;;;;;;8.13;4.60;;;16.10;54.40;;;;;;5068962;28;20391;-54
2022/07/06 02:42:43;;;;;;;11.95;4.88;;;15.90;54.20;;;;;;5069127;28;20801;-55
2022/07/06 02:45:10;;;;;;;10.00;4.77;;;16.10;59.70;;;;;;5068203;28;21307;-54
2022/07/06 02:47:37;;;;;;;8.32;4.30;;;16.00;81.20;;;;;;5066108;28;20376;-55
2022/07/06 02:50:03;;;;;;;7.83;4.50;;;16.20;84.40;;;;;;5068297;28;20405;-54
2022/07/06 02:52:28;;;;;;;10.25;4.30;;;16.10;67.50;;;;;;5068524;28;20789;-55
2022/07/06 02:54:54;;;;;;;8.47;4.60;;;16.00;98.10;;;;;;5068507;28;20802;-55
2022/07/06 02:57:19;;;;;;;10.97;4.67;;;16.00;99.90;;;;;;5069003;28;20482;-54
2022/07/06 02:59:45;;;;;;;7.55;4.40;;;16.10;99.90;;;;;;5068853;28;20400;-55
2022/07/06 03:02:11;;;;;;;8.33;4.50;;;16.10;99.90;;;;;;5067802;28;20391;-55
2022/07/06 03:04:37;;;;;;;8.15;4.40;;;16.00;99.90;;;;;;5068706;28;20392;-55
2022/07/06 03:07:03;;;;;;;9.18;4.88;;;16.00;99.90;;;;;;5067871;28;20956;-54
2022/07/06 03:09:29;;;;;;;8.88;4.78;;;16.00;99.90;;;;;;5069593;28;20884;-56
2022/07/06 03:11:55;;;;;;;8.30;4.38;;;15.90;99.90;;;;;;5067450;28;20407;-55
2022/07/06 03:14:21;;;;;;;9.00;4.80;;;15.90;99.90;;;;;;5067332;28;20803;-55
2022/07/06 03:16:46;;;;;;;9.20;4.80;;;15.90;99.90;;;;;;5068487;28;20485;-55
2022/07/06 03:19:12;;;;;;;8.43;4.97;;;15.90;99.90;;;;;;5067564;28;20391;-55
2022/07/06 03:21:37;;;;;;;7.90;5.07;;;15.80;99.90;;;;;;5067156;28;20388;-55
2022/07/06 03:24:04;;;;;;;10.10;5.60;;;15.80;99.90;;;;;;5067650;28;20418;-55
2022/07/06 03:26:29;;;;;;;10.97;5.17;;;15.70;1.00;;;;;;5062174;28;20960;-55
2022/07/06 03:28:55;;;;;;;10.85;4.93;;;15.70;1.00;;;;;;5066196;28;20398;-55
2022/07/06 03:31:21;;;;;;;8.82;5.00;;;15.50;1.00;;;;;;5065904;28;20487;-55
2022/07/06 03:33:46;;;;;;;10.90;4.97;;;15.60;84.70;;;;;;5069181;28;20466;-55
2022/07/06 03:36:12;;;;;;;10.23;5.43;;;15.50;99.90;;;;;;5067072;28;20375;-55
2022/07/06 03:38:38;;;;;;;11.52;5.60;;;15.50;99.90;;;;;;5069913;28;20512;-55
2022/07/06 03:41:04;;;;;;;11.07;5.28;;;15.50;99.90;;;;;;5067041;28;20423;-55
2022/07/06 03:43:30;;;;;;;10.20;5.38;;;15.40;1.00;;;;;;5068484;28;20479;-55
2022/07/06 03:45:55;;;;;;;10.07;5.50;;;15.50;1.00;;;;;;5067717;28;20383;-55
2022/07/06 03:48:21;;;;;;;11.07;5.80;;;15.40;99.90;;;;;;5079811;28;20874;-55
2022/07/06 03:50:47;;;;;;;11.93;5.60;;;15.40;1.00;;;;;;5068942;28;20468;-55
2022/07/06 03:53:12;;;;;;;8.98;5.60;;;15.30;1.00;;;;;;5066874;28;20388;-55
2022/07/06 03:55:38;;;;;;;10.55;5.78;;;15.30;99.90;;;;;;5067693;28;20388;-55
2022/07/06 03:58:04;;;;;;;9.70;5.43;;;15.40;3.70;;;;;;5067075;28;20876;-55
2022/07/06 04:00:29;;;;;;;10.10;5.80;;;15.40;26.80;;;;;;5068539;28;20372;-55
2022/07/06 04:02:55;;;;;;;9.50;5.80;;;15.40;1.00;;;;;;5070457;28;20449;-55
2022/07/06 04:05:22;;;;;;;12.90;6.60;;;15.50;1.00;;;;;;5068148;28;20386;-55
2022/07/06 04:07:48;;;;;;;9.80;6.20;;;15.50;1.00;;;;;;5067885;28;20399;-55
2022/07/06 04:10:17;;;;;;;10.05;6.53;;;15.50;1.00;;;;;;5067160;28;20376;-55
2022/07/06 04:12:44;;;;;;;11.60;6.47;;;15.60;1.00;;;;;;5068012;28;20415;-55
2022/07/06 04:15:10;;;;;;;12.27;6.70;;;15.50;1.00;;;;;;5065465;28;20424;-54
2022/07/06 04:17:55;;;;;;;11.43;6.60;;;15.60;1.00;;;;;;5072647;28;20545;-55
2022/07/06 04:20:22;;;;;;;11.27;6.10;;;15.70;1.00;;;;;;5070752;28;20458;-55
2022/07/06 04:22:48;;;;;;;10.60;6.68;;;15.70;1.00;;;;;;5071910;28;20407;-55
2022/07/06 04:25:14;;;;;;;10.25;6.22;;;15.70;1.00;;;;;;5069221;28;21194;-54
2022/07/06 04:27:40;;;;;;;9.40;6.20;;;15.80;1.00;;;;;;5071403;28;20773;-54
2022/07/06 04:30:07;;;;;;;11.10;6.82;;;15.80;99.90;;;;;;5070877;28;20388;-54
2022/07/06 04:32:33;;;;;;;10.30;6.53;;;15.80;1.00;;;;;;5074499;28;20739;-54
2022/07/06 04:34:59;;;;;;;14.82;6.20;;;15.80;99.90;;;;;;5070588;28;20868;-54
2022/07/06 04:37:24;;;;;;;9.37;6.23;;;16.00;99.90;;;;;;5071780;28;20865;-55
2022/07/06 04:39:50;;;;;;;13.10;6.95;;;15.90;99.90;;;;;;5071166;28;20395;-54
2022/07/06 04:42:16;;;;;;;11.97;6.87;;;15.90;99.90;;;;;;5070975;28;21085;-54
2022/07/06 04:44:41;;;;;;;14.73;7.23;;;16.00;99.90;;;;;;5071533;28;20391;-55
2022/07/06 04:47:07;;;;;;;11.82;6.80;;;16.00;99.90;;;;;;5070533;28;20403;-54
2022/07/06 04:49:33;;;;;;;11.30;6.20;;;16.20;58.60;;;;;;5073484;28;20504;-54
2022/07/06 04:51:58;;;;;;;10.50;6.32;;;16.20;1.00;;;;;;5077071;28;20407;-54
2022/07/06 04:54:24;;;;;;;9.85;6.40;;;16.30;1.00;;;;;;5071476;28;20404;-54
2022/07/06 04:56:50;;;;;;;10.30;6.50;;;16.40;1.00;;;;;;5065506;28;20393;-55
2022/07/06 04:59:15;;;;;;;10.30;6.60;;;16.50;99.90;;;;;;5070830;28;20388;-54
2022/07/06 05:01:41;;;;;;;9.43;6.30;;;16.60;1.00;;;;;;5073399;28;20387;-55
2022/07/06 05:04:07;;;;;;;9.68;6.07;;;17.20;27.10;;;;;;5072294;28;20388;-54
2022/07/06 05:06:33;;;;;;;10.73;5.90;;;17.70;1.00;;;;;;5071256;28;20458;-54
2022/07/06 05:09:02;;;;;;;10.45;5.85;;;18.20;99.90;;;;;;5070325;28;20412;-54
2022/07/06 05:11:28;;;;;;;13.90;6.68;;;18.70;99.90;;;;;;5067658;28;20412;-54
2022/07/06 05:13:54;;;;;;;10.80;5.90;;;18.90;17.90;;;;;;5087891;28;20478;-54
2022/07/06 05:16:20;;;;;;;10.60;5.50;;;19.30;1.00;;;;;;5069211;28;20929;-54
2022/07/06 05:18:46;;;;;;;9.15;5.20;;;19.90;1.00;;;;;;5068747;28;20408;-54
2022/07/06 05:21:11;;;;;;;10.80;5.40;;;20.40;1.00;;;;;;5061590;28;20413;-54
2022/07/06 05:23:37;;;;;;;9.55;5.20;;;20.60;1.00;;;;;;5071691;28;20391;-54
2022/07/06 05:26:03;;;;;;;11.20;6.10;;;20.50;1.00;;;;;;5066000;28;20477;-55
2022/07/06 05:28:29;;;;;;;9.20;5.83;;;20.70;1.00;;;;;;5069427;28;20434;-54
2022/07/06 05:30:54;;;;;;;8.70;5.60;;;20.80;1.00;;;;;;5071160;28;20407;-54
2022/07/06 05:33:20;;;;;;;10.10;5.40;;;20.50;1.00;;;;;;5069225;28;21190;-54
2022/07/06 05:35:46;;;;;;;9.20;5.35;;;21.00;1.00;;;;;;5068927;28;20407;-55
2022/07/06 05:38:11;;;;;;;13.20;5.13;;;21.60;1.00;;;;;;5070002;28;20384;-54
2022/07/06 05:40:37;;;;;;;10.43;4.90;;;22.30;1.00;;;;;;5076442;28;20460;-54
2022/07/06 05:43:03;;;;;;;9.68;4.75;;;22.80;1.00;;;;;;5070039;28;20368;-55
2022/07/06 05:45:29;;;;;;;10.10;4.40;;;22.50;1.00;;;;;;5089610;28;20398;-54
2022/07/06 05:50:39;;;;;;;9.75;4.80;;;21.60;1.00;;;;;;5050535;28;20373;-54
2022/07/06 05:53:05;;;;;;;8.43;4.77;;;22.00;1.00;;;;;;5068233;28;20395;-54
2022/07/06 05:55:31;;;;;;;8.70;4.40;;;21.90;1.00;;;;;;5070228;28;20734;-53
2022/07/06 05:57:57;;;;;;;9.95;4.40;;;22.20;1.00;;;;;;5086454;28;20547;-54
2022/07/06 06:00:24;;;;;;;8.87;4.57;;;22.60;1.00;;;;;;5088780;28;20389;-54
2022/07/06 06:02:50;;;;;;;9.33;4.90;;;22.60;1.00;;;;;;5089775;28;20732;-54
2022/07/06 06:05:16;;;;;;;8.68;5.00;;;22.40;1.00;;;;;;5062458;28;20411;-54
2022/07/06 06:07:43;;;;;;;9.52;5.30;;;21.90;1.00;;;;;;5076206;28;20418;-54
2022/07/06 06:10:10;;;;;;;8.77;4.90;;;21.00;1.00;;;;;;5069364;28;20383;-54
2022/07/06 06:12:37;;;;;;;11.20;6.68;;;20.50;1.00;;;;;;5069979;28;20418;-54
2022/07/06 06:15:03;;;;;;;11.35;5.65;;;20.20;1.00;;;;;;5069349;28;20392;-54
2022/07/06 06:17:29;;;;;;;11.57;6.40;;;19.90;1.00;;;;;;5082132;28;20386;-54
2022/07/06 06:19:55;;;;;;;11.20;5.55;;;19.70;1.00;;;;;;5089856;28;20377;-55
2022/07/06 06:22:21;;;;;;;10.57;5.37;;;19.80;1.00;;;;;;5071531;28;20423;-55
2022/07/06 06:24:47;;;;;;;11.50;4.72;;;20.10;1.00;;;;;;5068601;28;20928;-54
2022/07/06 06:27:12;;;;;;;9.02;4.90;;;20.10;1.00;;;;;;5069459;28;20391;-55
2022/07/06 06:29:38;;;;;;;9.40;4.90;;;19.90;1.00;;;;;;5069773;28;20392;-55
2022/07/06 06:32:05;;;;;;;11.52;5.60;;;19.80;1.00;;;;;;5069902;28;20451;-54
2022/07/06 06:34:31;;;;;;;10.60;4.60;;;20.00;1.00;;;;;;5069806;28;20399;-55
2022/07/06 06:36:59;;;;;;;12.77;4.72;;;20.40;1.00;;;;;;5068996;28;21404;-55
2022/07/06 06:39:25;;;;;;;16.05;5.55;;;20.60;1.00;;;;;;5068652;28;20380;-55
2022/07/06 06:41:50;;;;;;;10.70;4.70;;;20.70;1.00;;;;;;5084536;28;20390;-55
2022/07/06 06:44:17;;;;;;;8.55;4.78;;;20.90;1.00;;;;;;5089006;28;20377;-55
2022/07/06 06:46:43;;;;;;;9.88;4.63;;;21.40;1.00;;;;;;5086526;28;20408;-55
2022/07/06 06:49:10;;;;;;;8.90;4.40;;;22.30;1.00;;;;;;5084965;28;20390;-55
2022/07/06 06:51:38;;;;;;;9.50;4.43;;;;;;;;;;5068358;28;20502;-56
2022/07/06 06:54:04;;;;;;;9.10;4.20;;;;;;;;;;5071223;28;20386;-55
2022/07/06 06:56:30;;;;;;;9.75;4.35;;;25.00;99.90;;;;;;5070970;28;20395;-55
2022/07/06 06:58:55;;;;;;;8.50;4.10;;;25.90;99.90;;;;;;5069462;28;20378;-57
2022/07/06 07:01:21;;;;;;;8.27;3.60;;;26.60;99.90;;;;;;5068846;28;20391;-56
2022/07/06 07:03:47;;;;;;;8.10;3.80;;;26.50;99.90;;;;;;5073347;28;20387;-56
2022/07/06 07:06:13;;;;;;;7.97;4.03;;;27.50;99.90;;;;;;5076249;28;20401;-56
2022/07/06 07:08:39;;;;;;;8.97;4.40;;;27.10;99.90;;;;;;5089794;28;20397;-55
2022/07/06 07:11:05;;;;;;;7.73;4.10;;;26.20;99.90;;;;;;5076331;28;20483;-55
2022/07/06 07:13:30;;;;;;;10.47;3.80;;;26.50;99.90;;;;;;5081865;28;20817;-56
2022/07/06 07:15:56;;;;;;;7.90;4.30;;;27.50;99.90;;;;;;5082653;28;20523;-56
2022/07/06 07:18:22;;;;;;;8.98;3.92;;;27.90;99.90;;;;;;5088612;28;20390;-56
2022/07/06 07:20:47;;;;;;;9.05;4.60;;;27.50;99.90;;;;;;5080041;28;20389;-56
2022/07/06 07:23:13;;;;;;;10.18;4.82;;;28.00;99.90;;;;;;5067856;28;20455;-56
2022/07/06 07:25:39;;;;;;;7.63;4.90;;;29.50;99.90;;;;;;5068856;28;20414;-56
2022/07/06 07:28:05;;;;;;;8.77;4.70;;;29.50;99.90;;;;;;5067889;28;20383;-56
2022/07/06 07:30:30;;;;;;;7.70;5.25;;;30.00;99.90;;;;;;5068967;28;20387;-56
2022/07/06 07:32:56;;;;;;;8.60;5.10;;;30.50;99.90;;;;;;5068676;28;20805;-57
2022/07/06 07:35:23;;;;;;;8.53;5.60;;;30.30;99.90;;;;;;5067795;28;20844;-56
2022/07/06 07:37:48;;;;;;;8.60;6.03;;;30.70;99.90;;;;;;5068277;28;20474;-56
2022/07/06 07:40:14;;;;;;;8.63;5.88;;;30.50;99.90;;;;;;5067842;28;20471;-57
2022/07/06 07:42:40;;;;;;;8.50;5.10;;;29.50;99.90;;;;;;5068552;28;20390;-56
2022/07/06 07:45:07;;;;;;;9.20;4.38;;;28.80;99.90;;;;;;5067914;28;20465;-56
2022/07/06 07:47:33;;;;;;;9.35;5.00;;;29.70;99.90;;;;;;5068550;28;20860;-56
2022/07/06 07:49:59;;;;;;;10.18;6.00;;;31.60;99.90;;;;;;5070298;28;20865;-56
2022/07/06 07:52:25;;;;;;;8.87;5.03;;;32.20;99.90;;;;;;5070809;28;20415;-56
2022/07/06 07:54:51;;;;;;;10.03;9.03;;;31.30;1.00;;;;;;5072311;28;20490;-57
2022/07/06 07:57:16;;;;;;;10.35;5.70;;;32.40;99.90;;;;;;5071733;28;20430;-56
2022/07/06 07:59:42;;;;;;;8.35;4.10;;;32.90;99.90;;;;;;5072520;28;20379;-56
2022/07/06 08:02:08;;;;;;;9.27;4.00;;;33.10;99.90;;;;;;5071858;28;20444;-56
2022/07/06 08:04:33;;;;;;;8.67;4.00;;;32.30;99.90;;;;;;5072288;28;20433;-56
2022/07/06 08:06:59;;;;;;;9.60;4.27;;;32.10;99.90;;;;;;5072185;28;20416;-56
2022/07/06 08:09:25;;;;;;;8.00;3.63;;;33.20;99.90;;;;;;5071581;28;20777;-56
2022/07/06 08:11:50;;;;;;;9.10;4.18;;;33.20;99.90;;;;;;5070956;28;20718;-57
2022/07/06 08:14:16;;;;;;;9.27;6.87;;;32.70;99.90;;;;;;5071667;28;20387;-57
2022/07/06 08:16:43;;;;;;;8.57;6.30;;;31.30;99.90;;;;;;5072365;28;20382;-56
2022/07/06 08:19:09;;;;;;;11.30;6.50;;;31.00;99.90;;;;;;5071366;28;20383;-56
2022/07/06 08:21:35;;;;;;;9.20;6.00;;;31.30;99.90;;;;;;5072074;28;20721;-57
2022/07/06 08:24:01;;;;;;;8.68;6.53;;;31.40;99.90;;;;;;5071454;28;20857;-56
2022/07/06 08:26:28;;;;;;;8.55;5.55;;;30.80;99.90;;;;;;5071916;28;20410;-56
2022/07/06 08:28:54;;;;;;;9.20;5.72;;;30.40;99.90;;;;;;5072070;28;20408;-56
2022/07/06 08:31:20;;;;;;;8.68;5.60;;;31.20;99.90;;;;;;5071225;28;20395;-56
2022/07/06 08:33:45;;;;;;;10.23;5.30;;;31.90;99.90;;;;;;5071989;28;20466;-56
2022/07/06 08:36:11;;;;;;;9.57;6.33;;;32.40;99.90;;;;;;5071369;28;20994;-57
2022/07/06 08:38:36;;;;;;;8.82;5.55;;;31.50;99.90;;;;;;5071910;28;20490;-57
2022/07/06 08:41:05;;;;;;;7.90;5.72;;;31.70;99.90;;;;;;5071478;28;20462;-57
2022/07/06 08:43:32;;;;;;;9.00;6.43;;;32.20;99.90;;;;;;5070617;28;20783;-56
2022/07/06 08:45:59;;;;;;;9.70;6.10;;;31.90;99.90;;;;;;5071750;28;20425;-56
2022/07/06 08:48:26;;;;;;;9.38;5.90;;;32.60;99.90;;;;;;5070707;28;20932;-56
2022/07/06 08:50:53;;;;;;;8.30;3.95;;;32.40;99.90;;;;;;5071721;28;20454;-56
2022/07/06 08:53:20;;;;;;;7.93;6.57;;;33.00;99.90;;;;;;5070608;28;20928;-56
2022/07/06 08:55:47;;;;;;;8.00;6.83;;;34.00;99.90;;;;;;5071094;28;20388;-56
2022/07/06 08:58:14;;;;;;;7.75;4.60;;;35.10;99.90;;;;;;5070607;28;20781;-56
2022/07/06 09:00:40;;;;;;;8.63;6.53;;;35.50;99.90;;;;;;5070353;28;20748;-57
2022/07/06 09:03:07;;;;;;;9.73;6.43;;;34.40;99.90;;;;;;5070710;28;20398;-57
2022/07/06 09:05:35;;;;;;;8.70;7.25;;;34.20;99.90;;;;;;5071414;28;20879;-57
2022/07/06 09:08:02;;;;;;;9.80;7.75;;;34.50;99.90;;;;;;5071146;28;20433;-56
2022/07/06 09:10:28;;;;;;;7.80;6.00;;;34.50;99.90;;;;;;5070877;28;20499;-56
2022/07/06 09:13:03;;;;;;;9.67;6.93;;;34.10;99.90;;;;;;5071154;28;20764;-56
2022/07/06 09:15:28;;;;;;;7.28;3.50;;;32.50;99.90;;;;;;5069863;28;20793;-55
2022/07/06 09:17:56;;;;;;;9.93;5.07;;;32.50;99.90;;;;;;5069510;28;20487;-56
2022/07/06 09:20:21;;;;;;;9.40;5.90;;;32.00;99.90;;;;;;5070617;28;20408;-56
2022/07/06 09:22:47;;;;;;;8.63;6.20;;;32.10;99.90;;;;;;5071291;28;20410;-57
2022/07/06 09:25:15;;;;;;;10.00;5.80;;;32.50;99.90;;;;;;5069838;28;20415;-56
2022/07/06 09:27:54;;;;;;;9.60;6.33;;;32.80;99.90;;;;;;5071018;28;20384;-56
2022/07/06 09:30:21;;;;;;;10.10;7.23;;;33.00;99.90;;;;;;5070307;28;20418;-56
2022/07/06 09:32:50;;;;;;;9.52;7.40;;;31.90;99.90;;;;;;5071132;28;20427;-56
2022/07/06 09:35:38;;;;;;;9.13;6.22;;;31.20;99.90;;;;;;5070259;28;20420;-56
2022/07/06 09:38:14;;;;;;;8.98;6.53;;;30.30;99.90;;;;;;5070131;28;20892;-56
2022/07/06 09:40:45;;;;;;;11.73;6.47;;;30.90;99.90;;;;;;5070726;28;20379;-56
2022/07/06 09:43:15;;;;;;;10.15;6.80;;;31.80;99.90;;;;;;5070048;28;20391;-56
2022/07/06 09:45:42;;;;;;;10.48;7.20;;;31.00;99.90;;;;;;5070908;28;20838;-56
2022/07/06 09:48:21;;;;;;;11.50;7.47;;;30.30;99.90;;;;;;5069648;28;20395;-56
2022/07/06 09:50:50;;;;;;;11.20;7.33;;;30.60;99.90;;;;;;5070198;28;20761;-56
2022/07/06 09:53:17;;;;;;;8.43;6.45;;;29.80;99.90;;;;;;5069850;28;20383;-56
2022/07/06 09:55:47;;;;;;;10.85;7.20;;;30.00;99.90;;;;;;5070709;28;20423;-56
2022/07/06 09:58:13;;;;;;;8.70;6.70;;;29.60;99.90;;;;;;5069623;28;20476;-56
2022/07/06 10:00:39;;;;;;;8.00;6.10;;;30.00;99.90;;;;;;5070585;28;20795;-57
2022/07/06 10:03:05;;;;;;;9.48;6.50;;;29.50;99.90;;;;;;5069780;28;20944;-56
2022/07/06 10:05:32;;;;;;;10.40;6.80;;;30.40;99.90;;;;;;5070219;28;20372;-56
2022/07/06 10:08:00;;;;;;;8.40;5.60;;;30.00;99.90;;;;;;5070354;28;20380;-57
2022/07/06 10:10:29;;;;;;;9.23;5.60;;;30.90;99.90;;;;;;5069472;28;20382;-56
2022/07/06 10:12:57;;;;;;;9.27;5.90;;;32.50;99.90;;;;;;5069661;28;20412;-56
2022/07/06 10:15:26;;;;;;;11.02;6.25;;;31.90;99.90;;;;;;5069232;28;20396;-56
2022/07/06 10:17:54;;;;;;;10.70;6.00;;;30.30;99.90;;;;;;5069981;28;20372;-56
2022/07/06 10:20:20;;;;;;;9.25;7.00;;;29.00;99.90;;;;;;5069380;28;20411;-56
2022/07/06 10:22:47;;;;;;;9.00;6.43;;;28.80;99.90;;;;;;5069645;28;20441;-56
2022/07/06 10:25:16;;;;;;;13.02;7.75;;;28.10;99.90;;;;;;5068780;28;20415;-56
2022/07/06 10:27:43;;;;;;;8.70;6.57;;;28.10;99.90;;;;;;5070132;28;20787;-55
2022/07/06 10:30:10;;;;;;;10.63;7.22;;;28.00;99.90;;;;;;5069200;28;20907;-56
2022/07/06 10:32:38;;;;;;;9.47;7.60;;;27.80;99.90;;;;;;5069706;28;20491;-56
2022/07/06 10:35:05;;;;;;;8.88;6.20;;;27.80;99.90;;;;;;5069362;28;20387;-56
2022/07/06 10:37:32;;;;;;;9.45;6.15;;;27.80;99.90;;;;;;5069659;28;20384;-55
2022/07/06 10:42:56;;;;;;;10.27;6.90;;;27.60;99.90;;;;;;5069714;28;20380;-55
2022/07/06 10:45:27;;;;;;;9.00;5.60;;;27.90;99.90;;;;;;5068881;28;20390;-55
2022/07/06 10:48:11;;;;;;;9.87;6.00;;;27.70;99.90;;;;;;5069915;28;20383;-56
2022/07/06 10:50:49;;;;;;;9.07;6.70;;;27.40;99.90;;;;;;5069658;28;20887;-56
2022/07/06 10:53:17;;;;;;;10.68;7.43;;;27.00;99.90;;;;;;5068883;28;20470;-56
2022/07/06 10:55:47;;;;;;;9.77;6.72;;;26.90;99.90;;;;;;5068853;28;20384;-56
2022/07/06 10:58:14;;;;;;;9.50;6.00;;;26.90;99.90;;;;;;5068706;28;20380;-56
2022/07/06 11:00:53;;;;;;;9.75;6.93;;;26.70;99.90;;;;;;5069342;28;20392;-56
2022/07/06 11:03:38;;;;;;;8.63;6.18;;;26.20;99.90;;;;;;5068042;28;20768;-55
2022/07/06 11:06:09;;;;;;;10.30;6.13;;;26.00;99.90;;;;;;5069161;28;20388;-56
2022/07/06 11:08:49;;;;;;;8.80;6.43;;;26.40;99.90;;;;;;5069051;28;20395;-56
2022/07/06 11:11:17;;;;;;;12.10;6.93;;;26.80;99.90;;;;;;5068186;28;20407;-56
2022/07/06 11:14:03;;;;;;;10.60;6.88;;;26.70;99.90;;;;;;5068955;28;20469;-56
2022/07/06 11:16:36;;;;;;;9.23;6.20;;;26.50;99.90;;;;;;5068706;28;20382;-56
2022/07/06 11:19:06;;;;;;;8.07;5.85;;;26.40;99.90;;;;;;5069403;28;20388;-56
2022/07/06 11:21:38;;;;;;;10.13;6.38;;;26.70;99.90;;;;;;5069001;28;20447;-56
2022/07/06 11:24:06;;;;;;;11.35;6.22;;;26.70;99.90;;;;;;5067890;28;20424;-56
2022/07/06 11:26:35;;;;;;;10.52;6.80;;;27.00;99.90;;;;;;5068945;28;20813;-56
2022/07/06 11:29:03;;;;;;;8.67;4.90;;;27.80;99.90;;;;;;5069078;28;20493;-57
2022/07/06 11:31:29;;;;;;;8.43;6.10;;;28.40;99.90;;;;;;5068515;28;20852;-57
2022/07/06 11:33:54;;;;;;;7.70;5.25;;;27.60;99.90;;;;;;5067063;28;20396;-56
2022/07/06 11:36:22;;;;;;;9.20;5.50;;;26.70;99.90;;;;;;5068199;28;20376;-56
2022/07/06 11:38:49;;;;;;;9.52;5.57;;;26.90;99.90;;;;;;5068950;28;20380;-56
2022/07/06 11:41:17;;;;;;;9.23;6.60;;;26.90;99.90;;;;;;5068172;28;20668;-56
2022/07/06 11:43:45;;;;;;;10.52;6.38;;;26.80;99.90;;;;;;5068797;28;20379;-56
2022/07/06 11:46:34;;;;;;;10.32;6.25;;;27.10;99.90;;;;;;5067982;28;20502;-56
2022/07/06 11:49:05;;;;;;;9.10;5.40;;;27.50;99.90;;;;;;5069208;28;20409;-56
2022/07/06 11:51:34;;;;;;;9.18;5.60;;;27.00;99.90;;;;;;5068441;28;20412;-56
2022/07/06 11:54:03;;;;;;;10.50;7.10;;;26.60;99.90;;;;;;5068399;28;20384;-57
2022/07/06 11:56:29;;;;;;;10.27;5.97;;;26.30;99.90;;;;;;5068051;28;20387;-56
2022/07/06 11:58:57;;;;;;;9.17;6.47;;;26.30;99.90;;;;;;5068286;28;20703;-56
2022/07/06 12:01:24;;;;;;;9.77;6.40;;;26.40;99.90;;;;;;5067590;28;20823;-56
2022/07/06 12:03:51;;;;;;;9.88;6.07;;;26.60;99.90;;;;;;5067289;28;20387;-56
2022/07/06 12:06:22;;;;;;;11.77;6.10;;;26.60;99.90;;;;;;5067600;28;20456;-56
2022/07/06 12:08:50;;;;;;;9.45;6.30;;;26.00;99.90;;;;;;5068618;28;20649;-56
2022/07/06 12:11:28;;;;;;;9.85;6.32;;;25.70;99.90;;;;;;5067668;28;20412;-56
2022/07/06 12:13:56;;;;;;;10.20;6.73;;;26.40;99.90;;;;;;5067030;28;20406;-56
2022/07/06 12:16:34;;;;;;;10.55;6.15;;;26.00;99.90;;;;;;5067715;28;20372;-56
2022/07/06 12:19:02;;;;;;;11.60;6.65;;;26.10;99.90;;;;;;5068124;28;20853;-56
2022/07/06 12:21:28;;;;;;;8.70;5.88;;;25.50;99.90;;;;;;5067623;28;20376;-56
2022/07/06 12:23:55;;;;;;;10.30;6.50;;;25.60;99.90;;;;;;5068303;28;20383;-56
2022/07/06 12:26:26;;;;;;;9.82;6.20;;;25.80;99.90;;;;;;5067294;28;20411;-56
2022/07/06 12:29:05;;;;;;;11.27;6.60;;;25.80;99.90;;;;;;5068153;28;20841;-56
2022/07/06 12:31:36;;;;;;;10.23;6.35;;;25.90;99.90;;;;;;5067741;28;20400;-56
2022/07/06 12:34:04;;;;;;;9.68;6.18;;;25.50;99.90;;;;;;5068081;28;20537;-56
2022/07/06 12:36:30;;;;;;;8.55;5.90;;;25.60;99.90;;;;;;5068653;28;20872;-56
2022/07/06 12:38:56;;;;;;;9.35;5.82;;;25.70;99.90;;;;;;5071781;28;20383;-56
2022/07/06 12:41:28;;;;;;;9.35;5.55;;;25.90;99.90;;;;;;5071035;28;20376;-56
2022/07/06 12:44:06;;;;;;;9.00;5.40;;;25.90;99.90;;;;;;5071864;28;20380;-56
2022/07/06 12:46:37;;;;;;;8.48;5.65;;;25.60;99.90;;;;;;5069810;28;20872;-56
2022/07/06 12:49:11;;;;;;;10.53;5.80;;;25.70;99.90;;;;;;5071816;28;20392;-57
2022/07/06 12:52:00;;;;;;;9.15;5.60;;;25.50;99.90;;;;;;5071492;28;20845;-56
2022/07/06 12:54:29;;;;;;;8.40;5.82;;;25.60;99.90;;;;;;5070618;28;20407;-57